Time;durP1;ratioP1;P1;durP2;ratioP2;P2;SDS_P1;SDS_P2;PMS_P1;PMS_P2;Temp;Humidity;BMP_temperature;BMP_pressure;BME280_temperature;BME280_humidity;BME280_pressure;Samples;Min_cycle;Max_cycle;Signal;HPM_P1;HPM_P2
2022/12/19 00:02:23;;;;;;;38.20;17.15;;;1.60;66.20;;;;;;2369174;53;20919;-74
2022/12/19 00:04:50;;;;;;;46.47;19.02;;;1.60;66.20;;;;;;2463888;52;20898;-70
2022/12/19 00:07:16;;;;;;;43.15;18.58;;;1.60;66.20;;;;;;2480020;52;20905;-72
2022/12/19 00:09:43;;;;;;;41.15;17.05;;;1.60;66.20;;;;;;2462566;52;20974;-74
2022/12/19 00:12:10;;;;;;;43.65;18.70;;;1.60;66.20;;;;;;2368887;53;20965;-72
2022/12/19 00:14:39;;;;;;;34.80;15.40;;;1.70;66.30;;;;;;2369979;52;20994;-73
2022/12/19 00:17:05;;;;;;;38.28;17.20;;;1.70;66.30;;;;;;2369383;53;20978;-75
2022/12/19 00:19:32;;;;;;;37.17;15.93;;;1.70;66.20;;;;;;2621356;52;21701;-74
2022/12/19 00:21:58;;;;;;;35.15;15.73;;;1.70;66.30;;;;;;2368739;53;21532;-72
2022/12/19 00:24:24;;;;;;;40.22;18.33;;;1.70;66.30;;;;;;2369138;53;20930;-73
2022/12/19 00:26:51;;;;;;;39.70;18.20;;;1.80;66.30;;;;;;2369385;53;20923;-75
2022/12/19 00:29:17;;;;;;;42.22;18.55;;;1.80;66.40;;;;;;2521655;52;20994;-74
2022/12/19 00:31:44;;;;;;;40.15;17.83;;;1.80;66.40;;;;;;2376042;52;21042;-70
2022/12/19 00:34:10;;;;;;;32.17;16.30;;;1.80;66.40;;;;;;2433670;52;20906;-73
2022/12/19 00:36:37;;;;;;;31.12;14.98;;;1.90;66.50;;;;;;2369001;53;20922;-73
2022/12/19 00:39:03;;;;;;;37.03;15.10;;;1.90;66.60;;;;;;2394688;52;20982;-75
2022/12/19 00:41:31;;;;;;;42.53;18.87;;;1.90;66.60;;;;;;2450491;52;21017;-75
2022/12/19 00:44:12;;;;;;;39.88;17.48;;;1.90;66.60;;;;;;2368355;53;21506;-71
2022/12/19 00:46:39;;;;;;;44.78;18.65;;;1.90;66.60;;;;;;2469212;52;21438;-72
2022/12/19 00:49:05;;;;;;;42.17;17.55;;;2.00;66.80;;;;;;2391923;52;20910;-72
2022/12/19 00:51:33;;;;;;;32.95;16.60;;;2.00;66.80;;;;;;2369135;53;21447;-73
2022/12/19 00:54:00;;;;;;;36.40;16.52;;;2.10;67.00;;;;;;2450297;52;21399;-71
2022/12/19 00:56:28;;;;;;;39.72;17.40;;;2.10;67.00;;;;;;2513545;52;21034;-72
2022/12/19 00:58:54;;;;;;;39.72;17.73;;;2.10;67.00;;;;;;2581576;52;20930;-73
2022/12/19 01:01:23;;;;;;;34.97;16.55;;;2.20;67.10;;;;;;2416921;52;20992;-73
2022/12/19 01:03:49;;;;;;;44.90;17.58;;;2.20;67.10;;;;;;2572619;52;20930;-72
2022/12/19 01:06:31;;;;;;;42.97;19.02;;;2.20;67.10;;;;;;2397167;52;21046;-75
2022/12/19 01:08:57;;;;;;;32.53;14.68;;;2.30;67.20;;;;;;2458449;52;20957;-71
2022/12/19 01:14:09;;;;;;;37.50;15.95;;;2.30;67.20;;;;;;2499943;52;21316;-73
2022/12/19 01:16:36;;;;;;;32.00;14.35;;;2.40;67.30;;;;;;2368922;53;20938;-73
2022/12/19 01:19:02;;;;;;;37.10;16.33;;;2.40;67.30;;;;;;2386353;52;21039;-73
2022/12/19 01:21:29;;;;;;;36.22;15.32;;;2.40;67.30;;;;;;2376012;52;20978;-70
2022/12/19 01:23:55;;;;;;;26.40;12.85;;;2.50;67.40;;;;;;2621198;52;21411;-73
2022/12/19 01:26:22;;;;;;;32.17;14.98;;;2.50;67.40;;;;;;2368187;53;20918;-71
2022/12/19 01:28:48;;;;;;;31.42;15.25;;;2.50;67.40;;;;;;2369123;53;21380;-74
2022/12/19 01:31:15;;;;;;;26.12;12.15;;;2.50;67.40;;;;;;2369162;53;21005;-71
2022/12/19 01:33:41;;;;;;;27.48;12.85;;;2.60;67.50;;;;;;2591393;52;21371;-71
2022/12/19 01:36:08;;;;;;;34.13;15.23;;;2.60;67.50;;;;;;2375384;52;20990;-71
2022/12/19 01:38:35;;;;;;;34.47;15.48;;;2.60;67.50;;;;;;2375075;52;21675;-72
2022/12/19 01:41:01;;;;;;;27.73;14.18;;;2.70;67.60;;;;;;2610566;52;20919;-75
2022/12/19 01:43:29;;;;;;;29.08;13.05;;;2.70;67.60;;;;;;2620164;52;20914;-70
2022/12/19 01:45:57;;;;;;;30.23;13.98;;;2.70;67.60;;;;;;2368009;53;21097;-74
2022/12/19 01:51:05;;;;;;;33.70;15.80;;;2.70;67.50;;;;;;2470932;52;21455;-73
2022/12/19 01:53:51;;;;;;;30.42;13.45;;;2.80;67.20;;;;;;2368761;53;20942;-71
2022/12/19 01:56:21;;;;;;;32.65;14.75;;;2.80;67.40;;;;;;2591742;52;20898;-73
2022/12/19 01:58:47;;;;;;;30.75;14.23;;;2.90;67.60;;;;;;2368386;53;20950;-72
2022/12/19 02:01:14;;;;;;;28.58;13.25;;;2.90;67.70;;;;;;2538442;52;20917;-72
2022/12/19 02:03:41;;;;;;;23.58;11.88;;;2.90;67.70;;;;;;2620534;52;21471;-72
2022/12/19 02:06:07;;;;;;;26.40;12.20;;;2.90;67.70;;;;;;2441448;52;20939;-70
2022/12/19 02:08:34;;;;;;;24.73;11.73;;;3.00;67.80;;;;;;2368911;53;21045;-75
2022/12/19 02:11:00;;;;;;;31.42;14.02;;;3.00;67.80;;;;;;2621173;52;20975;-75
2022/12/19 02:13:26;;;;;;;24.50;11.00;;;3.00;67.80;;;;;;2621610;52;20951;-74
2022/12/19 02:19:18;;;;;;;30.77;13.18;;;3.00;67.90;;;;;;2492810;52;21028;-72
2022/12/19 02:22:00;;;;;;;24.02;10.82;;;3.10;67.50;;;;;;2341340;53;21059;-71
2022/12/19 02:26:36;;;;;;;21.03;10.23;;;3.10;67.80;;;;;;2368803;53;21352;-71
2022/12/19 02:30:01;;;;;;;26.35;10.60;;;3.20;67.90;;;;;;2368777;53;20922;-73
2022/12/19 02:36:00;;;;;;;23.00;10.73;;;3.20;67.80;;;;;;2398438;53;20941;-73
2022/12/19 02:38:58;;;;;;;21.45;10.10;;;3.30;67.80;;;;;;2341514;53;20906;-74
2022/12/19 02:42:28;;;;;;;23.30;10.60;;;3.30;67.90;;;;;;2341230;53;21055;-74
2022/12/19 02:44:54;;;;;;;17.27;8.43;;;3.40;67.80;;;;;;2341574;53;21308;-72
2022/12/19 02:47:21;;;;;;;19.80;8.07;;;3.40;68.10;;;;;;2485029;52;21508;-75
2022/12/19 02:49:48;;;;;;;19.45;9.40;;;3.40;68.20;;;;;;2341295;53;20978;-75
2022/12/19 02:52:47;;;;;;;19.85;9.85;;;3.50;68.30;;;;;;2517342;52;20919;-72
2022/12/19 02:55:16;;;;;;;19.62;9.43;;;3.50;68.20;;;;;;2341027;53;20965;-73
2022/12/19 02:58:14;;;;;;;19.08;10.15;;;3.50;68.30;;;;;;2374877;52;20986;-75
2022/12/19 03:00:51;;;;;;;17.62;8.50;;;3.60;68.30;;;;;;2567391;52;21805;-72
2022/12/19 03:03:22;;;;;;;22.77;9.90;;;3.60;68.30;;;;;;2481201;52;20978;-70
2022/12/19 03:06:33;;;;;;;22.73;9.40;;;3.60;68.40;;;;;;2541773;52;20955;-72
2022/12/19 03:11:37;;;;;;;21.87;9.43;;;3.70;68.40;;;;;;2421419;53;20919;-73
2022/12/19 03:14:09;;;;;;;15.73;7.00;;;3.70;68.00;;;;;;2341399;53;21774;-71
2022/12/19 03:16:36;;;;;;;16.80;7.95;;;3.80;68.40;;;;;;2340933;53;21002;-72
2022/12/19 03:19:03;;;;;;;15.68;7.47;;;3.80;68.40;;;;;;2341326;53;20923;-71
2022/12/19 03:21:53;;;;;;;17.48;9.07;;;3.80;68.50;;;;;;2587830;52;20952;-72
2022/12/19 03:24:19;;;;;;;18.85;8.07;;;3.80;68.50;;;;;;2341233;54;21917;-71
2022/12/19 03:26:56;;;;;;;17.87;8.07;;;3.90;68.60;;;;;;2387177;52;20973;-73
2022/12/19 03:29:39;;;;;;;18.98;8.93;;;3.90;69.40;;;;;;2344819;53;20906;-72
2022/12/19 03:32:08;;;;;;;19.75;9.00;;;3.90;68.70;;;;;;2368953;53;20926;-76
2022/12/19 03:34:38;;;;;;;17.27;7.95;;;3.90;68.60;;;;;;2368890;53;21414;-74
2022/12/19 03:37:04;;;;;;;14.93;7.57;;;4.00;68.80;;;;;;2565661;52;20950;-77
2022/12/19 03:39:31;;;;;;;22.15;9.32;;;4.10;68.80;;;;;;2368861;53;21316;-72
2022/12/19 03:44:43;;;;;;;15.63;7.45;;;4.10;68.80;;;;;;2444156;52;20918;-71
2022/12/19 03:47:32;;;;;;;22.23;9.68;;;4.20;68.90;;;;;;2621003;52;20922;-72
2022/12/19 03:49:59;;;;;;;19.12;9.23;;;4.20;68.80;;;;;;2389919;53;20973;-73
2022/12/19 03:52:50;;;;;;;21.48;10.13;;;4.20;68.80;;;;;;2396496;52;20961;-74
2022/12/19 03:55:29;;;;;;;20.98;9.65;;;4.30;68.90;;;;;;2341567;53;21061;-76
2022/12/19 03:58:09;;;;;;;19.95;10.27;;;4.30;68.90;;;;;;2341561;53;20969;-74
2022/12/19 04:00:37;;;;;;;19.73;10.45;;;4.30;68.80;;;;;;2587281;52;20928;-72
2022/12/19 04:03:03;;;;;;;19.73;8.98;;;4.40;68.90;;;;;;2341428;53;20968;-72
2022/12/19 04:05:29;;;;;;;19.23;9.32;;;4.40;68.80;;;;;;2345471;54;20929;-72
2022/12/19 04:07:57;;;;;;;20.62;9.40;;;4.40;68.80;;;;;;2339816;54;20925;-75
2022/12/19 04:10:24;;;;;;;19.77;9.77;;;4.40;68.80;;;;;;2339610;54;21485;-71
2022/12/19 04:13:02;;;;;;;16.58;8.60;;;4.40;68.80;;;;;;2348746;53;20926;-78
2022/12/19 04:16:37;;;;;;;18.08;8.93;;;4.50;68.90;;;;;;2368972;53;20974;-73
2022/12/19 04:19:34;;;;;;;19.87;9.65;;;4.50;68.90;;;;;;2345830;53;20936;-72
2022/12/19 04:22:06;;;;;;;14.68;7.20;;;4.50;68.70;;;;;;2341315;53;21055;-73
2022/12/19 04:24:33;;;;;;;16.17;7.25;;;4.60;68.90;;;;;;2340897;54;21000;-72
2022/12/19 04:26:59;;;;;;;15.82;7.82;;;4.60;69.00;;;;;;2364208;54;20930;-72
2022/12/19 04:29:26;;;;;;;17.35;8.52;;;4.60;69.00;;;;;;2348281;53;20936;-72
2022/12/19 04:31:52;;;;;;;17.15;8.90;;;4.60;69.00;;;;;;2368251;53;21352;-70
2022/12/19 04:34:19;;;;;;;20.55;8.90;;;4.60;69.00;;;;;;2369031;53;21442;-77
2022/12/19 04:36:46;;;;;;;18.52;10.00;;;4.70;69.10;;;;;;2393494;52;20938;-73
2022/12/19 04:39:13;;;;;;;18.77;9.40;;;4.70;69.00;;;;;;2368865;53;21416;-72
2022/12/19 04:41:39;;;;;;;16.45;8.25;;;4.70;69.00;;;;;;2368682;53;21086;-74
2022/12/19 04:44:06;;;;;;;20.10;9.80;;;4.70;69.00;;;;;;2620845;52;20925;-74
2022/12/19 04:46:33;;;;;;;16.02;8.88;;;4.70;69.00;;;;;;2369040;53;21435;-73
2022/12/19 04:48:59;;;;;;;17.60;8.98;;;4.80;69.00;;;;;;2409509;52;21431;-74
2022/12/19 04:51:26;;;;;;;15.88;7.82;;;4.80;69.00;;;;;;2368840;53;21034;-72
2022/12/19 04:53:52;;;;;;;16.52;8.13;;;4.80;69.00;;;;;;2369274;53;21447;-70
2022/12/19 04:56:19;;;;;;;18.37;8.75;;;4.80;68.90;;;;;;2621142;52;20954;-71
2022/12/19 04:58:45;;;;;;;18.10;9.32;;;4.80;68.90;;;;;;2368837;53;21152;-73
2022/12/19 05:01:13;;;;;;;19.55;9.73;;;4.80;68.90;;;;;;2368330;53;21276;-75
2022/12/19 05:03:39;;;;;;;17.62;8.52;;;4.80;68.80;;;;;;2367951;53;20954;-72
2022/12/19 05:06:07;;;;;;;14.63;7.12;;;4.90;68.90;;;;;;2368757;53;20990;-73
2022/12/19 05:08:34;;;;;;;14.32;7.62;;;4.90;68.90;;;;;;2344939;53;21318;-75
2022/12/19 05:11:01;;;;;;;15.90;6.97;;;4.90;68.90;;;;;;2341187;53;21017;-72
2022/12/19 05:13:27;;;;;;;12.85;6.62;;;4.90;68.90;;;;;;2341402;53;20953;-75
2022/12/19 05:15:58;;;;;;;16.23;8.68;;;4.90;68.80;;;;;;2340147;53;20948;-75
2022/12/19 05:18:24;;;;;;;18.00;8.90;;;4.90;68.80;;;;;;2585710;52;20997;-74
2022/12/19 05:20:51;;;;;;;18.15;9.93;;;4.90;68.80;;;;;;2339992;53;21033;-71
2022/12/19 05:23:17;;;;;;;19.73;9.93;;;4.90;68.80;;;;;;2340106;53;20953;-73
2022/12/19 05:25:44;;;;;;;18.80;9.30;;;4.90;68.90;;;;;;2339951;53;21592;-72
2022/12/19 05:28:10;;;;;;;18.77;10.18;;;4.90;68.90;;;;;;2340507;53;21056;-74
2022/12/19 05:30:36;;;;;;;18.10;9.95;;;4.90;69.00;;;;;;2436985;52;21466;-75
2022/12/19 05:33:03;;;;;;;21.23;9.95;;;5.00;69.10;;;;;;2340275;53;20929;-75
2022/12/19 05:35:29;;;;;;;16.85;9.13;;;5.00;69.10;;;;;;2367174;52;20984;-74
2022/12/19 05:37:55;;;;;;;13.95;7.12;;;5.00;69.10;;;;;;2342106;53;20937;-72
2022/12/19 05:40:22;;;;;;;14.95;7.62;;;5.00;69.10;;;;;;2505628;52;21049;-75
2022/12/19 05:42:48;;;;;;;12.27;6.82;;;5.00;69.10;;;;;;2369095;53;20914;-73
2022/12/19 05:45:15;;;;;;;15.18;8.15;;;5.00;69.10;;;;;;2368163;53;21838;-76
2022/12/19 05:47:45;;;;;;;18.10;8.27;;;5.00;69.00;;;;;;2370132;52;20961;-75
2022/12/19 05:50:12;;;;;;;17.02;8.70;;;5.00;68.90;;;;;;2368650;53;21458;-72
2022/12/19 05:52:39;;;;;;;18.77;9.38;;;5.10;69.00;;;;;;2472466;52;20930;-73
2022/12/19 05:55:06;;;;;;;16.52;8.98;;;5.10;69.10;;;;;;2368071;53;20907;-71
2022/12/19 05:57:32;;;;;;;18.65;9.50;;;5.10;69.00;;;;;;2368680;53;21498;-73
2022/12/19 05:59:58;;;;;;;17.45;8.10;;;5.10;69.00;;;;;;2368687;53;21383;-74
2022/12/19 06:02:25;;;;;;;13.65;7.37;;;5.10;69.10;;;;;;2453471;52;20983;-74
2022/12/19 06:04:54;;;;;;;15.48;8.75;;;5.10;69.10;;;;;;2368894;53;21002;-72
2022/12/19 06:07:21;;;;;;;14.48;7.53;;;5.10;69.10;;;;;;2369360;53;21395;-76
2022/12/19 06:09:48;;;;;;;16.37;8.65;;;5.10;69.10;;;;;;2368720;53;20994;-74
2022/12/19 06:12:14;;;;;;;18.20;9.27;;;5.10;69.10;;;;;;2368975;53;20921;-72
2022/12/19 06:14:40;;;;;;;17.30;8.52;;;5.10;69.10;;;;;;2621069;52;20990;-76
2022/12/19 06:17:06;;;;;;;13.62;7.43;;;5.10;69.10;;;;;;2368819;53;21750;-71
2022/12/19 06:19:33;;;;;;;18.20;9.68;;;5.10;69.10;;;;;;2509146;52;20966;-73
2022/12/19 06:21:59;;;;;;;16.75;8.98;;;5.10;69.10;;;;;;2369114;53;21006;-73
2022/12/19 06:24:26;;;;;;;17.77;9.13;;;5.10;69.10;;;;;;2368372;53;20965;-70
2022/12/19 06:26:52;;;;;;;13.23;7.97;;;5.10;69.10;;;;;;2380228;52;20938;-70
2022/12/19 06:29:18;;;;;;;13.18;7.00;;;5.10;69.10;;;;;;2368908;53;21541;-76
2022/12/19 06:31:45;;;;;;;13.50;6.97;;;5.20;69.20;;;;;;2384913;52;20973;-75
2022/12/19 06:34:11;;;;;;;13.43;7.70;;;5.20;69.30;;;;;;2621690;52;21299;-71
2022/12/19 06:36:44;;;;;;;13.05;6.93;;;5.20;69.30;;;;;;2621053;52;21025;-73
2022/12/19 06:39:14;;;;;;;13.68;7.87;;;5.20;69.30;;;;;;2620082;52;21021;-76
2022/12/19 06:44:25;;;;;;;10.52;5.80;;;5.20;69.30;;;;;;2478331;52;21292;-76
2022/12/19 06:46:52;;;;;;;12.52;6.05;;;5.20;69.30;;;;;;2368871;53;20974;-76
2022/12/19 06:49:19;;;;;;;11.65;6.10;;;5.20;69.40;;;;;;2439903;52;20942;-73
2022/12/19 06:51:45;;;;;;;11.82;6.40;;;5.20;69.40;;;;;;2368858;53;21285;-70
2022/12/19 06:54:11;;;;;;;13.65;7.70;;;5.20;69.40;;;;;;2368157;53;21364;-73
2022/12/19 06:56:39;;;;;;;15.30;8.50;;;5.20;69.40;;;;;;2369037;53;20930;-71
2022/12/19 06:59:05;;;;;;;13.45;7.15;;;5.20;69.40;;;;;;2368918;53;20918;-74
2022/12/19 07:02:33;;;;;;;15.23;7.97;;;5.20;69.40;;;;;;2368823;53;20997;-75
2022/12/19 07:05:04;;;;;;;13.50;7.12;;;5.30;69.40;;;;;;2584576;52;21772;-75
2022/12/19 07:07:30;;;;;;;16.70;8.35;;;5.30;69.40;;;;;;2368455;53;20926;-70
2022/12/19 07:09:57;;;;;;;18.02;9.43;;;5.30;69.50;;;;;;2545097;52;21364;-72
2022/12/19 07:12:23;;;;;;;15.45;8.52;;;5.30;69.50;;;;;;2418610;52;21237;-74
2022/12/19 07:14:50;;;;;;;15.43;8.07;;;5.30;69.40;;;;;;2482814;52;20923;-75
2022/12/19 07:17:18;;;;;;;15.10;8.50;;;5.30;69.50;;;;;;2369324;53;21209;-71
2022/12/19 07:19:45;;;;;;;16.70;9.63;;;5.30;69.50;;;;;;2368477;53;20911;-71
2022/12/19 07:22:11;;;;;;;14.00;8.35;;;5.30;69.40;;;;;;2369009;53;21006;-75
2022/12/19 07:24:38;;;;;;;13.82;7.55;;;5.30;69.40;;;;;;2369054;53;20966;-73
2022/12/19 07:27:04;;;;;;;13.30;7.95;;;5.30;69.40;;;;;;2369067;53;20938;-71
2022/12/19 07:29:31;;;;;;;11.43;6.55;;;5.30;69.40;;;;;;2368945;53;20926;-74
2022/12/19 07:31:57;;;;;;;12.00;6.62;;;5.30;69.40;;;;;;2369306;53;20899;-75
2022/12/19 07:34:24;;;;;;;12.88;6.87;;;5.30;69.40;;;;;;2550877;52;21266;-74
2022/12/19 07:36:51;;;;;;;10.25;5.60;;;5.30;69.40;;;;;;2368885;53;20970;-70
2022/12/19 07:39:17;;;;;;;13.13;6.30;;;5.30;69.40;;;;;;2368399;53;20990;-73
2022/12/19 07:41:44;;;;;;;9.90;5.60;;;5.30;69.40;;;;;;2368616;53;21423;-76
2022/12/19 07:44:12;;;;;;;12.20;6.50;;;5.30;70.10;;;;;;2368786;53;20946;-74
2022/12/19 07:46:38;;;;;;;12.52;6.87;;;5.30;69.50;;;;;;2368895;53;20910;-72
2022/12/19 07:49:05;;;;;;;13.23;6.28;;;5.30;69.50;;;;;;2368489;53;21022;-77
2022/12/19 07:51:31;;;;;;;11.93;6.78;;;5.40;69.60;;;;;;2369010;53;21198;-74
2022/12/19 07:53:57;;;;;;;11.98;6.45;;;5.40;69.60;;;;;;2369251;53;20998;-71
2022/12/19 07:56:24;;;;;;;11.45;6.62;;;5.40;69.60;;;;;;2542811;52;21399;-74
2022/12/19 07:58:51;;;;;;;14.07;7.22;;;5.40;69.60;;;;;;2368785;53;20918;-74
2022/12/19 08:01:17;;;;;;;12.18;6.30;;;5.40;69.60;;;;;;2368860;53;21787;-71
2022/12/19 08:03:43;;;;;;;11.07;6.28;;;5.40;69.70;;;;;;2372410;52;20910;-73
2022/12/19 08:06:10;;;;;;;16.00;7.60;;;5.40;69.70;;;;;;2368781;53;21594;-73
2022/12/19 08:08:36;;;;;;;14.27;7.50;;;5.40;69.70;;;;;;2368923;53;21009;-72
2022/12/19 08:11:21;;;;;;;15.32;8.30;;;5.40;69.70;;;;;;2369290;52;21474;-73
2022/12/19 08:13:47;;;;;;;11.27;6.80;;;5.40;69.70;;;;;;2460260;52;20946;-74
2022/12/19 08:16:13;;;;;;;15.63;7.68;;;5.40;69.70;;;;;;2369078;53;20979;-74
2022/12/19 08:18:40;;;;;;;16.15;8.38;;;5.50;69.90;;;;;;2369164;53;21061;-73
2022/12/19 08:21:07;;;;;;;13.82;7.47;;;5.50;69.80;;;;;;2369367;53;20938;-70
2022/12/19 08:23:33;;;;;;;16.60;8.02;;;5.50;69.90;;;;;;2369121;53;20950;-72
2022/12/19 08:26:00;;;;;;;14.02;8.18;;;5.50;69.80;;;;;;2368366;53;20951;-72
2022/12/19 08:28:27;;;;;;;13.23;7.50;;;5.50;69.80;;;;;;2368557;53;21338;-73
2022/12/19 08:30:53;;;;;;;14.57;7.68;;;5.50;69.80;;;;;;2398573;52;20922;-74
2022/12/19 08:33:20;;;;;;;11.93;7.12;;;5.50;69.80;;;;;;2456087;52;21388;-74
2022/12/19 08:35:46;;;;;;;13.82;7.93;;;5.60;70.00;;;;;;2375722;52;21490;-76
2022/12/19 08:38:13;;;;;;;12.57;6.72;;;5.60;70.00;;;;;;2368928;53;21293;-70
2022/12/19 08:40:39;;;;;;;11.98;6.97;;;5.60;70.00;;;;;;2369114;53;21051;-76
2022/12/19 08:43:07;;;;;;;11.70;6.90;;;5.70;70.20;;;;;;2368883;53;20930;-70
2022/12/19 08:45:33;;;;;;;12.90;6.87;;;5.70;70.20;;;;;;2369046;53;20918;-74
2022/12/19 08:48:00;;;;;;;11.43;6.53;;;5.70;70.20;;;;;;2459347;52;20986;-73
2022/12/19 08:50:26;;;;;;;13.45;7.47;;;5.70;70.20;;;;;;2368843;53;20994;-77
2022/12/19 08:52:52;;;;;;;13.15;6.93;;;5.70;70.10;;;;;;2368597;53;21014;-74
2022/12/19 08:55:19;;;;;;;11.90;7.00;;;5.80;70.10;;;;;;2369026;53;21014;-71
2022/12/19 08:57:45;;;;;;;13.25;6.70;;;5.80;70.10;;;;;;2356741;53;21988;-74
2022/12/19 09:00:12;;;;;;;12.37;6.78;;;5.80;70.10;;;;;;2362347;53;20994;-72
2022/12/19 09:02:39;;;;;;;9.95;5.50;;;5.80;70.20;;;;;;2369331;53;21395;-72
2022/12/19 09:05:06;;;;;;;11.02;5.75;;;5.80;70.20;;;;;;2369359;53;20994;-72
2022/12/19 09:07:34;;;;;;;8.88;5.12;;;5.90;70.40;;;;;;2368426;53;20938;-71
2022/12/19 09:10:00;;;;;;;11.68;5.50;;;5.90;70.40;;;;;;2368768;53;20954;-72
2022/12/19 09:12:27;;;;;;;11.30;4.80;;;5.90;70.30;;;;;;2368757;53;20919;-74
2022/12/19 09:14:54;;;;;;;10.27;5.18;;;6.00;70.40;;;;;;2621329;52;20922;-73
2022/12/19 09:17:20;;;;;;;10.05;5.10;;;6.00;70.50;;;;;;2621904;52;20922;-70
2022/12/19 09:19:46;;;;;;;9.00;4.45;;;6.00;70.50;;;;;;2368933;53;21272;-70
2022/12/19 09:22:13;;;;;;;10.27;5.37;;;6.10;70.70;;;;;;2368876;53;20969;-75
2022/12/19 09:24:40;;;;;;;10.30;5.28;;;6.10;70.70;;;;;;2368868;53;20937;-72
2022/12/19 09:27:06;;;;;;;9.60;5.53;;;6.10;70.70;;;;;;2621793;52;20990;-70
2022/12/19 09:29:34;;;;;;;11.12;5.20;;;6.20;70.80;;;;;;2368510;53;20974;-73
2022/12/19 09:32:01;;;;;;;13.35;6.75;;;6.20;70.80;;;;;;2370883;52;21416;-74
2022/12/19 09:34:28;;;;;;;10.77;6.35;;;6.20;70.90;;;;;;2609112;52;20961;-75
2022/12/19 09:36:54;;;;;;;11.35;6.37;;;6.30;70.90;;;;;;2389089;52;20927;-71
2022/12/19 09:39:21;;;;;;;13.32;7.12;;;6.30;70.90;;;;;;2369080;53;20970;-72
2022/12/19 09:42:22;;;;;;;15.40;8.32;;;6.40;70.90;;;;;;2620819;52;20991;-72
2022/12/19 09:47:26;;;;;;;12.02;7.32;;;6.40;70.60;;;;;;2406430;52;20922;-72
2022/12/19 09:49:53;;;;;;;11.43;6.63;;;6.50;70.30;;;;;;2620672;52;20919;-72
2022/12/19 09:52:31;;;;;;;11.43;6.18;;;6.50;70.80;;;;;;2368412;53;21229;-74
2022/12/19 09:55:18;;;;;;;12.02;7.18;;;6.60;70.90;;;;;;2500928;52;20998;-75
2022/12/19 09:58:09;;;;;;;11.52;7.22;;;6.60;70.70;;;;;;2421289;52;21609;-71
2022/12/19 10:00:43;;;;;;;11.15;6.50;;;6.70;70.80;;;;;;2368608;53;20930;-72
2022/12/19 10:03:28;;;;;;;13.20;7.47;;;6.70;70.90;;;;;;2433165;52;21001;-71
2022/12/19 10:06:06;;;;;;;11.00;6.37;;;6.70;70.70;;;;;;2368685;53;21025;-74
2022/12/19 10:08:35;;;;;;;11.27;7.10;;;6.70;70.90;;;;;;2368497;53;20994;-73
2022/12/19 10:11:59;;;;;;;13.38;7.32;;;6.80;71.10;;;;;;2368083;53;21368;-76
2022/12/19 10:17:42;;;;;;;11.68;7.07;;;6.80;71.00;;;;;;2369187;53;20978;-72
2022/12/19 10:20:18;;;;;;;9.27;5.22;;;6.90;71.70;;;;;;2620787;52;21523;-71
2022/12/19 10:22:55;;;;;;;10.95;6.10;;;7.00;71.10;;;;;;2368708;53;20979;-71
2022/12/19 10:25:58;;;;;;;11.50;6.07;;;7.00;71.20;;;;;;2368656;53;21455;-72
2022/12/19 10:29:32;;;;;;;11.52;6.53;;;7.10;71.20;;;;;;2369092;53;20923;-71
2022/12/19 10:34:58;;;;;;;12.93;6.55;;;7.10;71.30;;;;;;2369174;53;20925;-73
2022/12/19 10:37:30;;;;;;;10.30;5.62;;;7.30;70.90;;;;;;2369167;53;21006;-72
2022/12/19 10:40:33;;;;;;;11.75;6.57;;;7.40;71.50;;;;;;2452797;52;21486;-72
2022/12/19 10:43:12;;;;;;;9.80;5.10;;;7.40;71.40;;;;;;2397427;52;21069;-69
2022/12/19 10:45:47;;;;;;;12.98;6.22;;;7.40;71.60;;;;;;2621733;52;21022;-74
2022/12/19 10:48:16;;;;;;;11.95;6.60;;;7.50;71.60;;;;;;2368793;53;20950;-73
2022/12/19 10:50:42;;;;;;;14.20;7.87;;;7.50;71.50;;;;;;2621502;52;21002;-72
2022/12/19 10:53:10;;;;;;;11.95;7.35;;;7.60;71.70;;;;;;2358381;53;20959;-73
2022/12/19 10:55:46;;;;;;;9.57;5.80;;;7.60;71.60;;;;;;2360403;53;20974;-72
2022/12/19 10:58:58;;;;;;;12.80;6.80;;;7.70;71.70;;;;;;2368728;53;20926;-72
2022/12/19 11:01:45;;;;;;;9.75;6.12;;;7.80;71.50;;;;;;2460726;52;20918;-70
2022/12/19 11:04:33;;;;;;;9.60;5.90;;;7.80;71.70;;;;;;2369228;53;20994;-72
2022/12/19 11:07:19;;;;;;;11.25;6.35;;;7.90;71.90;;;;;;2621786;52;20950;-71
2022/12/19 11:09:45;;;;;;;11.75;7.20;;;8.00;72.10;;;;;;2368464;53;20918;-71
2022/12/19 11:12:14;;;;;;;11.48;6.95;;;8.00;72.20;;;;;;2487895;52;21431;-73
2022/12/19 11:14:42;;;;;;;12.93;7.43;;;8.10;72.20;;;;;;2368794;53;21494;-73
2022/12/19 11:17:34;;;;;;;11.27;7.12;;;8.10;72.10;;;;;;2369167;53;20922;-75
2022/12/19 11:20:21;;;;;;;12.73;8.70;;;8.20;71.90;;;;;;2350033;53;20946;-72
2022/12/19 11:22:57;;;;;;;12.15;7.45;;;8.30;72.00;;;;;;2621087;52;21423;-72
2022/12/19 11:25:37;;;;;;;14.48;8.52;;;8.30;71.90;;;;;;2573567;52;21752;-70
2022/12/19 11:28:06;;;;;;;18.98;10.63;;;8.40;71.90;;;;;;2368842;53;20954;-72
2022/12/19 11:30:33;;;;;;;16.92;9.10;;;8.40;72.00;;;;;;2368418;53;20986;-72
2022/12/19 11:33:30;;;;;;;14.50;8.13;;;8.40;71.90;;;;;;2405430;52;20914;-75
2022/12/19 11:35:58;;;;;;;15.43;7.95;;;8.50;71.90;;;;;;2368777;53;20910;-74
2022/12/19 11:38:47;;;;;;;14.52;8.13;;;8.50;71.80;;;;;;2368145;53;21378;-70
2022/12/19 11:41:15;;;;;;;12.43;7.05;;;8.50;71.50;;;;;;2396325;52;21364;-72
2022/12/19 11:44:02;;;;;;;12.73;7.47;;;8.60;72.00;;;;;;2451043;52;21482;-70
2022/12/19 11:46:39;;;;;;;12.93;7.03;;;8.60;71.60;;;;;;2421697;52;1902526;-70
2022/12/19 11:49:30;;;;;;;12.45;6.78;;;8.70;71.80;;;;;;2368222;53;21351;-72
2022/12/19 11:53:12;;;;;;;10.98;6.60;;;8.70;71.50;;;;;;2367734;53;21148;-70
2022/12/19 11:55:55;;;;;;;10.45;5.85;;;8.70;71.10;;;;;;2369238;53;20939;-71
2022/12/19 11:58:22;;;;;;;13.80;6.90;;;8.80;71.80;;;;;;2348417;53;21455;-71
2022/12/19 12:03:06;;;;;;;11.07;6.55;;;8.80;72.60;;;;;;2367963;53;20985;-70
2022/12/19 12:05:45;;;;;;;9.70;5.40;;;8.90;71.20;;;;;;2367988;53;20966;-69
2022/12/19 12:10:00;;;;;;;9.88;6.05;;;8.90;71.90;;;;;;2602310;52;21054;-72
2022/12/19 12:12:46;;;;;;;11.07;6.68;;;9.00;71.10;;;;;;2620461;52;21050;-73
2022/12/19 12:21:51;;;;;;;9.95;6.32;;;9.00;71.80;;;;;;2369021;53;20926;-74
2022/12/19 12:26:12;;;;;;;8.93;5.30;;;9.10;70.90;;;;;;2368802;53;21019;-73
2022/12/19 12:29:04;;;;;;;10.77;5.93;;;9.00;70.30;;;;;;2368411;53;21586;-75
2022/12/19 12:31:52;;;;;;;11.27;7.22;;;9.10;71.10;;;;;;2368732;53;21542;-70
2022/12/19 12:38:17;;;;;;;11.98;7.00;;;9.10;71.20;;;;;;2368638;53;20943;-73
2022/12/19 12:41:20;;;;;;;9.60;5.75;;;9.10;70.90;;;;;;2369004;53;21300;-72
2022/12/19 12:44:47;;;;;;;11.35;6.25;;;9.10;70.80;;;;;;2344201;53;21385;-74
2022/12/19 12:47:24;;;;;;;12.00;7.10;;;9.10;70.50;;;;;;2341612;53;20989;-70
2022/12/19 12:50:00;;;;;;;13.90;8.65;;;9.10;71.00;;;;;;2341169;53;20913;-74
2022/12/19 12:52:44;;;;;;;13.18;7.97;;;9.10;71.00;;;;;;2341019;53;20984;-72
2022/12/19 12:55:39;;;;;;;12.57;6.97;;;9.20;71.00;;;;;;2341548;53;20948;-72
2022/12/19 13:05:12;;;;;;;11.27;7.07;;;9.20;71.30;;;;;;2510848;52;21579;-74
2022/12/19 13:07:42;;;;;;;10.20;5.93;;;9.20;71.00;;;;;;2450276;52;21028;-75
2022/12/19 13:10:28;;;;;;;9.82;5.90;;;9.20;71.10;;;;;;2360811;53;21386;-73
2022/12/19 13:13:29;;;;;;;13.40;6.82;;;9.20;70.70;;;;;;2474404;52;20909;-71
2022/12/19 13:15:55;;;;;;;14.73;7.50;;;9.20;71.10;;;;;;2341522;53;20916;-75
2022/12/19 13:18:36;;;;;;;14.05;8.77;;;9.20;71.00;;;;;;2440807;52;21004;-75
2022/12/19 13:21:03;;;;;;;12.05;7.62;;;9.20;70.60;;;;;;2341535;53;20924;-72
2022/12/19 13:23:51;;;;;;;14.10;8.70;;;9.10;70.70;;;;;;2418596;52;21497;-72
2022/12/19 13:26:43;;;;;;;10.93;7.10;;;9.10;70.70;;;;;;2341214;53;21229;-69
2022/12/19 13:29:32;;;;;;;13.43;7.83;;;9.10;71.20;;;;;;2341295;53;20921;-72
2022/12/19 13:32:23;;;;;;;14.48;7.65;;;9.10;70.40;;;;;;2340782;53;21241;-74
2022/12/19 13:34:56;;;;;;;12.98;7.20;;;9.10;70.40;;;;;;2341180;53;21212;-76
2022/12/19 13:37:30;;;;;;;13.05;7.47;;;9.10;70.90;;;;;;2389661;52;20956;-74
2022/12/19 13:40:00;;;;;;;14.95;8.63;;;9.10;70.90;;;;;;2425910;53;21573;-70
2022/12/19 13:45:26;;;;;;;14.00;8.63;;;9.10;70.70;;;;;;2349904;53;20934;-71
2022/12/19 13:47:53;;;;;;;13.52;8.27;;;9.10;70.60;;;;;;2371783;53;21553;-74
2022/12/19 13:50:39;;;;;;;15.15;9.35;;;9.10;70.70;;;;;;2369102;53;20990;-76
2022/12/19 13:53:17;;;;;;;14.25;9.38;;;9.10;70.50;;;;;;2368975;53;21004;-74
2022/12/19 13:55:43;;;;;;;14.50;8.48;;;9.10;70.50;;;;;;2368500;53;20954;-72
2022/12/19 13:59:32;;;;;;;12.32;7.93;;;9.10;70.70;;;;;;2368685;53;21676;-73
2022/12/19 14:02:13;;;;;;;10.50;7.03;;;9.10;70.00;;;;;;2368859;53;20918;-71
2022/12/19 14:04:39;;;;;;;11.20;6.55;;;9.10;70.70;;;;;;2583943;52;20994;-73
2022/12/19 14:07:35;;;;;;;11.70;7.12;;;8.90;70.50;;;;;;2424908;52;21443;-74
2022/12/19 14:10:02;;;;;;;13.88;8.27;;;9.00;70.50;;;;;;2368569;53;20906;-72
2022/12/19 14:15:40;;;;;;;12.50;8.52;;;9.00;70.70;;;;;;2369317;53;21443;-72
2022/12/19 14:18:24;;;;;;;11.43;7.10;;;9.00;70.30;;;;;;2368615;53;20945;-74